createdAt,value
2018-06-21T00:00:42.990Z,53.00
2018-06-21T00:01:47.990Z,53.00
2018-06-21T00:02:52.956Z,53.00
2018-06-21T00:03:57.786Z,53.10
2018-06-21T00:05:02.724Z,53.00
2018-06-21T00:06:07.700Z,53.10
2018-06-21T00:07:12.592Z,53.00
2018-06-21T00:08:17.513Z,53.10
2018-06-21T00:09:22.414Z,53.10
2018-06-21T00:10:27.171Z,53.10
2018-06-21T00:11:31.963Z,53.10
2018-06-21T00:12:36.977Z,53.10
2018-06-21T00:13:41.867Z,53.10
2018-06-21T00:14:46.801Z,53.10
2018-06-21T00:15:51.750Z,53.10
2018-06-21T00:16:56.669Z,53.10
2018-06-21T00:18:01.655Z,53.10
2018-06-21T00:19:06.633Z,53.10
2018-06-21T00:20:11.583Z,53.10
2018-06-21T00:21:16.658Z,53.20
2018-06-21T00:22:21.742Z,53.10
2018-06-21T00:23:26.579Z,53.10
2018-06-21T00:24:31.607Z,53.10
2018-06-21T00:25:36.673Z,53.10
2018-06-21T00:26:41.603Z,53.20
2018-06-21T00:27:46.615Z,53.10
2018-06-21T00:28:51.587Z,53.10
2018-06-21T00:29:56.537Z,53.10
2018-06-21T00:31:01.402Z,53.10
2018-06-21T00:32:06.376Z,53.10
2018-06-21T00:33:11.348Z,53.10
2018-06-21T00:34:16.188Z,53.20
2018-06-21T00:35:21.239Z,53.20
2018-06-21T00:36:26.170Z,53.20
2018-06-21T00:37:31.006Z,53.10
2018-06-21T00:38:35.917Z,53.20
2018-06-21T00:39:40.701Z,53.20
2018-06-21T00:40:45.531Z,53.20
2018-06-21T00:41:50.402Z,53.20
2018-06-21T00:42:55.328Z,53.20
2018-06-21T00:44:00.256Z,53.20
2018-06-21T00:45:05.126Z,53.20
2018-06-21T00:46:10.064Z,53.20
2018-06-21T00:47:14.849Z,53.30
2018-06-21T00:48:19.804Z,53.20
2018-06-21T00:49:24.751Z,53.20
2018-06-21T00:50:29.704Z,53.20
2018-06-21T00:51:34.753Z,53.20
2018-06-21T00:52:39.761Z,53.80
2018-06-21T00:53:44.702Z,53.20
2018-06-21T00:54:49.721Z,53.20
2018-06-21T00:55:54.617Z,53.20
2018-06-21T00:56:59.595Z,53.40
2018-06-21T00:58:04.421Z,53.20
2018-06-21T00:59:09.300Z,53.20
2018-06-21T01:00:14.192Z,53.20
2018-06-21T01:01:19.090Z,53.20
2018-06-21T01:02:23.952Z,53.20
2018-06-21T01:03:28.874Z,53.20
2018-06-21T01:04:33.848Z,53.20
2018-06-21T01:05:38.731Z,53.30
2018-06-21T01:06:43.744Z,53.30
2018-06-21T01:07:48.717Z,53.30
2018-06-21T01:08:53.657Z,53.20
2018-06-21T01:09:58.677Z,53.20
2018-06-21T01:11:03.619Z,53.30
2018-06-21T01:12:08.577Z,53.90
2018-06-21T01:13:13.582Z,53.20
2018-06-21T01:14:18.460Z,53.30
2018-06-21T01:15:23.455Z,53.30
2018-06-21T01:16:28.327Z,53.30
2018-06-21T01:17:33.358Z,53.30
2018-06-21T01:18:38.364Z,53.30
2018-06-21T01:19:43.358Z,53.30
2018-06-21T01:20:48.242Z,53.30
2018-06-21T01:21:53.219Z,53.30
2018-06-21T01:22:58.520Z,53.30
2018-06-21T01:24:03.472Z,53.30
2018-06-21T01:25:08.387Z,53.30
2018-06-21T01:26:13.205Z,53.30
2018-06-21T01:27:18.093Z,53.30
2018-06-21T01:28:23.071Z,53.30
2018-06-21T01:29:28.079Z,53.30
2018-06-21T01:30:32.972Z,53.30
2018-06-21T01:31:37.808Z,53.30
2018-06-21T01:32:42.656Z,53.30
2018-06-21T01:33:47.555Z,53.30
2018-06-21T01:34:52.427Z,53.30
2018-06-21T01:35:57.398Z,53.30
2018-06-21T01:37:02.412Z,53.30
2018-06-21T01:38:07.311Z,53.40
2018-06-21T01:39:12.308Z,53.30
2018-06-21T01:40:17.310Z,54.00
2018-06-21T01:41:22.411Z,53.30
2018-06-21T01:42:27.328Z,53.30
2018-06-21T01:43:32.345Z,53.30
2018-06-21T01:44:37.279Z,53.30
2018-06-21T01:45:42.188Z,53.30
2018-06-21T01:46:47.134Z,53.30
2018-06-21T01:47:51.911Z,53.30
2018-06-21T01:48:56.792Z,53.30
2018-06-21T01:50:01.789Z,53.30
2018-06-21T01:51:06.743Z,53.40
2018-06-21T01:52:11.627Z,53.40
2018-06-21T01:53:16.555Z,53.30
2018-06-21T01:54:21.433Z,53.40
2018-06-21T01:55:26.343Z,53.40
2018-06-21T01:56:31.344Z,53.40
2018-06-21T01:57:36.191Z,53.40
2018-06-21T01:58:41.091Z,53.30
2018-06-21T01:59:45.989Z,53.40
2018-06-21T02:00:50.879Z,53.40
2018-06-21T02:01:55.890Z,53.40
2018-06-21T02:03:00.968Z,53.40
2018-06-21T02:04:06.043Z,53.40
2018-06-21T02:05:11.098Z,53.40
2018-06-21T02:06:16.073Z,53.40
2018-06-21T02:07:20.930Z,53.40
2018-06-21T02:08:25.930Z,53.40
2018-06-21T02:09:30.844Z,53.50
2018-06-21T02:10:35.755Z,53.40
2018-06-21T02:11:40.736Z,53.50
2018-06-21T02:12:45.703Z,53.40
2018-06-21T02:13:50.583Z,53.40
2018-06-21T02:14:55.429Z,53.40
2018-06-21T02:16:00.384Z,53.50
2018-06-21T02:17:05.176Z,53.40
2018-06-21T02:18:10.079Z,54.10
2018-06-21T02:19:15.032Z,53.50
2018-06-21T02:20:19.922Z,53.40
2018-06-21T02:21:24.837Z,53.40
2018-06-21T02:22:29.654Z,53.40
2018-06-21T02:23:34.485Z,53.40
2018-06-21T02:24:39.480Z,53.40
2018-06-21T02:25:44.601Z,53.40
2018-06-21T02:26:49.590Z,53.40
2018-06-21T02:27:54.518Z,53.50
2018-06-21T02:28:59.472Z,53.50
2018-06-21T02:30:04.356Z,53.50
2018-06-21T02:31:09.338Z,53.50
2018-06-21T02:32:14.264Z,53.50
2018-06-21T02:33:19.323Z,53.50
2018-06-21T02:34:24.252Z,53.50
2018-06-21T02:35:29.084Z,53.50
2018-06-21T02:36:34.060Z,53.50
2018-06-21T02:37:38.838Z,53.50
2018-06-21T02:38:43.740Z,53.50
2018-06-21T02:39:48.660Z,53.50
2018-06-21T02:40:53.571Z,53.50
2018-06-21T02:41:58.497Z,53.50
2018-06-21T02:43:03.595Z,53.50
2018-06-21T02:44:08.453Z,53.50
2018-06-21T02:45:13.396Z,53.50
2018-06-21T02:46:18.276Z,53.50
2018-06-21T02:47:23.328Z,53.50
2018-06-21T02:48:28.274Z,53.50
2018-06-21T02:49:33.273Z,53.50
2018-06-21T02:50:38.086Z,53.50
2018-06-21T02:51:43.021Z,53.50
2018-06-21T02:52:47.942Z,53.50
2018-06-21T02:53:52.880Z,53.50
2018-06-21T02:54:57.793Z,53.50
2018-06-21T02:56:02.627Z,53.50
2018-06-21T02:57:07.519Z,53.50
2018-06-21T02:58:12.513Z,53.50
2018-06-21T02:59:17.377Z,53.60
2018-06-21T03:00:22.243Z,53.50
2018-06-21T03:01:27.106Z,53.60
2018-06-21T03:02:31.980Z,53.50
2018-06-21T03:03:36.832Z,53.50
2018-06-21T03:04:41.793Z,54.20
2018-06-21T03:05:46.645Z,53.60
2018-06-21T03:06:51.641Z,53.60
2018-06-21T03:07:56.563Z,53.60
2018-06-21T03:09:01.522Z,53.60
2018-06-21T03:10:06.504Z,53.60
2018-06-21T03:11:11.373Z,53.60
2018-06-21T03:12:16.192Z,53.60
2018-06-21T03:13:21.092Z,53.70
2018-06-21T03:14:25.934Z,53.60
2018-06-21T03:15:30.863Z,53.60
2018-06-21T03:16:35.789Z,53.60
2018-06-21T03:17:40.704Z,53.60
2018-06-21T03:18:45.728Z,53.60
2018-06-21T03:19:50.570Z,53.60
2018-06-21T03:20:55.437Z,53.60
2018-06-21T03:22:00.663Z,53.60
2018-06-21T03:23:05.526Z,53.60
2018-06-21T03:24:10.501Z,53.60
2018-06-21T03:25:15.397Z,53.70
2018-06-21T03:26:20.284Z,53.60
2018-06-21T03:27:25.255Z,53.60
2018-06-21T03:28:30.174Z,53.60
2018-06-21T03:29:34.994Z,53.60
2018-06-21T03:30:39.864Z,53.60
2018-06-21T03:31:44.770Z,53.60
2018-06-21T03:32:49.673Z,53.70
2018-06-21T03:33:54.681Z,53.60
2018-06-21T03:34:59.522Z,53.60
2018-06-21T03:36:04.440Z,53.70
2018-06-21T03:37:09.397Z,53.60
2018-06-21T03:38:14.410Z,53.60
2018-06-21T03:39:19.483Z,53.60
2018-06-21T03:40:24.465Z,53.60
2018-06-21T03:41:29.446Z,53.70
2018-06-21T03:42:34.318Z,53.70
2018-06-21T03:43:39.293Z,53.70
2018-06-21T03:44:44.298Z,53.70
2018-06-21T03:45:49.284Z,53.70
2018-06-21T03:46:54.181Z,53.70
2018-06-21T03:47:58.937Z,53.70
2018-06-21T03:49:04.006Z,53.70
2018-06-21T03:50:08.886Z,53.70
2018-06-21T03:51:13.816Z,53.70
2018-06-21T03:52:18.936Z,53.70
2018-06-21T03:53:23.796Z,53.70
2018-06-21T03:54:28.763Z,53.70
2018-06-21T03:55:33.608Z,53.70
2018-06-21T03:56:38.612Z,53.80
2018-06-21T03:57:43.548Z,53.80
2018-06-21T03:58:48.405Z,53.80
2018-06-21T03:59:53.285Z,53.80
2018-06-21T04:00:58.335Z,53.80
2018-06-21T04:02:03.269Z,53.80
2018-06-21T04:03:08.572Z,53.80
2018-06-21T04:04:13.536Z,53.80
2018-06-21T04:05:18.511Z,53.80
2018-06-21T04:06:23.496Z,53.70
2018-06-21T04:07:28.339Z,53.80
2018-06-21T04:08:33.280Z,53.80
2018-06-21T04:09:38.270Z,53.80
2018-06-21T04:10:43.250Z,53.80
2018-06-21T04:11:48.247Z,53.90
2018-06-21T04:12:53.325Z,53.80
2018-06-21T04:13:58.371Z,53.80
2018-06-21T04:15:03.373Z,53.90
2018-06-21T04:16:08.324Z,53.90
2018-06-21T04:17:13.223Z,53.90
2018-06-21T04:18:18.309Z,53.90
2018-06-21T04:19:23.434Z,53.90
2018-06-21T04:20:28.430Z,53.80
2018-06-21T04:21:33.322Z,53.90
2018-06-21T04:22:38.210Z,53.90
2018-06-21T04:23:43.201Z,53.90
2018-06-21T04:24:48.174Z,53.90
2018-06-21T04:25:53.350Z,53.90
2018-06-21T04:26:58.453Z,53.90
2018-06-21T04:28:03.603Z,53.90
2018-06-21T04:29:08.617Z,54.00
2018-06-21T04:30:13.824Z,54.00
2018-06-21T04:31:18.917Z,54.00
2018-06-21T04:32:23.900Z,53.90
2018-06-21T04:33:28.917Z,54.00
2018-06-21T04:34:34.065Z,54.00
2018-06-21T04:35:39.142Z,53.90
2018-06-21T04:36:44.303Z,53.90
2018-06-21T04:37:49.495Z,53.90
2018-06-21T04:38:54.584Z,54.00
2018-06-21T04:39:59.631Z,54.00
2018-06-21T04:41:04.724Z,53.90
2018-06-21T04:42:09.902Z,54.00
2018-06-21T04:43:14.978Z,54.00
2018-06-21T04:44:20.168Z,54.00
2018-06-21T04:45:25.264Z,54.00
2018-06-21T04:46:30.373Z,54.00
2018-06-21T04:47:35.452Z,54.00
2018-06-21T04:48:40.420Z,54.00
2018-06-21T04:49:45.444Z,54.00
2018-06-21T04:50:50.407Z,54.00
2018-06-21T04:51:55.493Z,54.00
2018-06-21T04:53:00.573Z,54.10
2018-06-21T04:54:05.593Z,54.00
2018-06-21T04:55:10.586Z,54.00
2018-06-21T04:56:15.609Z,54.00
2018-06-21T04:57:20.778Z,54.00
2018-06-21T04:58:25.711Z,54.00
2018-06-21T04:59:30.684Z,54.00
2018-06-21T05:00:35.584Z,54.00
2018-06-21T05:01:40.786Z,54.10
2018-06-21T05:02:45.782Z,54.00
2018-06-21T05:03:50.753Z,54.00
2018-06-21T05:04:55.676Z,54.00
2018-06-21T05:06:00.661Z,54.00
2018-06-21T05:07:05.718Z,54.00
2018-06-21T05:08:10.598Z,54.00
2018-06-21T05:09:15.595Z,54.00
2018-06-21T05:10:20.599Z,54.00
2018-06-21T05:11:25.610Z,54.00
2018-06-21T05:12:30.648Z,54.10
2018-06-21T05:13:35.663Z,54.00
2018-06-21T05:14:40.746Z,54.00
2018-06-21T05:15:45.711Z,54.00
2018-06-21T05:16:50.579Z,54.00
2018-06-21T05:17:55.630Z,54.10
2018-06-21T05:19:00.593Z,54.10
2018-06-21T05:20:05.749Z,54.00
2018-06-21T05:21:10.913Z,54.00
2018-06-21T05:22:15.805Z,54.00
2018-06-21T05:23:20.728Z,54.00
2018-06-21T05:24:25.755Z,54.00
2018-06-21T05:25:30.762Z,54.00
2018-06-21T05:26:35.555Z,54.00
2018-06-21T05:27:40.416Z,54.00
2018-06-21T05:28:45.264Z,54.00
2018-06-21T05:29:50.277Z,54.10
2018-06-21T05:30:55.227Z,54.20
2018-06-21T05:32:00.227Z,54.20
2018-06-21T05:33:05.040Z,54.20
2018-06-21T05:34:10.105Z,54.30
2018-06-21T05:35:15.112Z,54.30
2018-06-21T05:36:20.036Z,54.30
2018-06-21T05:37:25.072Z,54.30
2018-06-21T05:38:30.097Z,54.30
2018-06-21T05:39:35.004Z,54.30
2018-06-21T05:40:39.988Z,54.40
2018-06-21T05:41:44.932Z,54.20
2018-06-21T05:42:49.923Z,54.20
2018-06-21T05:43:54.807Z,54.20
2018-06-21T05:44:59.763Z,54.20
2018-06-21T05:46:04.652Z,54.20
2018-06-21T05:47:09.638Z,54.20
2018-06-21T05:48:14.459Z,54.10
2018-06-21T05:49:19.408Z,54.00
2018-06-21T05:50:24.248Z,54.10
2018-06-21T05:51:29.104Z,53.90
2018-06-21T05:52:33.925Z,53.90
2018-06-21T05:53:38.802Z,53.90
2018-06-21T05:54:43.830Z,53.90
2018-06-21T05:55:49.031Z,53.90
2018-06-21T05:56:54.069Z,53.90
2018-06-21T05:57:58.974Z,53.80
2018-06-21T05:59:04.396Z,53.80
2018-06-21T06:00:09.319Z,53.90
2018-06-21T06:01:14.869Z,53.70
2018-06-21T06:02:19.934Z,53.70
2018-06-21T06:03:25.145Z,53.60
2018-06-21T06:04:30.202Z,53.60
2018-06-21T06:05:35.186Z,53.60
2018-06-21T06:06:40.107Z,53.60
2018-06-21T06:07:45.142Z,53.60
2018-06-21T06:08:50.092Z,53.60
2018-06-21T06:09:55.247Z,53.60
2018-06-21T06:11:00.353Z,53.50
2018-06-21T06:12:05.393Z,53.50
2018-06-21T06:13:10.477Z,53.50
2018-06-21T06:14:15.473Z,53.50
2018-06-21T06:15:20.517Z,53.40
2018-06-21T06:16:25.717Z,53.40
2018-06-21T06:17:30.656Z,53.40
2018-06-21T06:18:35.626Z,53.40
2018-06-21T06:19:40.564Z,53.40
2018-06-21T06:20:45.597Z,53.30
2018-06-21T06:21:50.715Z,53.20
2018-06-21T06:22:55.603Z,53.30
2018-06-21T06:24:00.651Z,53.30
2018-06-21T06:25:05.797Z,53.30
2018-06-21T06:26:10.789Z,53.30
2018-06-21T06:27:15.748Z,53.30
2018-06-21T06:28:20.699Z,53.30
2018-06-21T06:29:25.691Z,53.20
2018-06-21T06:30:30.649Z,53.10
2018-06-21T06:31:35.705Z,53.20
2018-06-21T06:32:40.682Z,53.10
2018-06-21T06:33:45.713Z,53.00
2018-06-21T06:34:50.786Z,53.10
2018-06-21T06:35:55.667Z,53.00
2018-06-21T06:37:00.598Z,53.00
2018-06-21T06:38:05.558Z,53.00
2018-06-21T06:39:10.456Z,53.00
2018-06-21T06:40:15.390Z,52.90
2018-06-21T06:41:20.376Z,52.90
2018-06-21T06:42:25.436Z,53.00
2018-06-21T06:43:30.349Z,52.90
2018-06-21T06:44:35.179Z,52.90
2018-06-21T06:45:40.091Z,53.00
2018-06-21T06:46:45.027Z,53.00
2018-06-21T06:47:49.877Z,52.90
2018-06-21T06:48:54.795Z,52.90
2018-06-21T06:49:59.778Z,52.90
2018-06-21T06:51:04.654Z,52.90
2018-06-21T06:52:09.509Z,52.90
2018-06-21T06:53:14.512Z,52.80
2018-06-21T06:54:19.604Z,52.90
2018-06-21T06:55:24.554Z,52.90
2018-06-21T06:56:29.386Z,52.90
2018-06-21T06:57:34.387Z,52.90
2018-06-21T06:58:39.414Z,52.90
2018-06-21T06:59:44.483Z,52.80
2018-06-21T07:00:49.475Z,52.80
2018-06-21T07:01:54.594Z,52.80
2018-06-21T07:02:59.652Z,52.80
2018-06-21T07:04:04.590Z,52.80
2018-06-21T07:05:09.570Z,52.80
2018-06-21T07:06:14.591Z,52.80
2018-06-21T07:07:19.603Z,52.80
2018-06-21T07:08:24.514Z,52.80
2018-06-21T07:09:29.366Z,52.70
2018-06-21T07:10:34.227Z,52.70
2018-06-21T07:11:39.169Z,52.70
2018-06-21T07:12:44.090Z,52.70
2018-06-21T07:13:48.997Z,52.70
2018-06-21T07:14:53.990Z,52.70
2018-06-21T07:15:58.850Z,52.70
2018-06-21T07:17:03.735Z,52.70
2018-06-21T07:18:08.579Z,52.70
2018-06-21T07:19:13.576Z,52.80
2018-06-21T07:20:18.564Z,52.70
2018-06-21T07:21:23.650Z,52.70
2018-06-21T07:22:29.184Z,52.80
2018-06-21T07:23:34.266Z,52.70
2018-06-21T07:24:39.229Z,52.70
2018-06-21T07:25:44.142Z,52.70
2018-06-21T07:26:49.077Z,52.70
2018-06-21T07:27:54.061Z,52.70
2018-06-21T07:28:59.008Z,52.70
2018-06-21T07:30:04.029Z,52.70
2018-06-21T07:31:09.082Z,52.70
2018-06-21T07:32:14.078Z,52.70
2018-06-21T07:33:19.104Z,52.70
2018-06-21T07:34:24.215Z,52.70
2018-06-21T07:35:29.203Z,52.70
2018-06-21T07:36:34.199Z,52.60
2018-06-21T07:37:39.289Z,52.60
2018-06-21T07:38:44.348Z,52.60
2018-06-21T07:39:49.424Z,52.50
2018-06-21T07:40:54.403Z,52.50
2018-06-21T07:41:59.504Z,53.10
2018-06-21T07:43:04.531Z,52.50
2018-06-21T07:44:09.470Z,52.40
2018-06-21T07:45:14.293Z,52.40
2018-06-21T07:46:19.225Z,52.40
2018-06-21T07:47:24.035Z,52.50
2018-06-21T07:48:28.927Z,52.50
2018-06-21T07:49:33.801Z,52.50
2018-06-21T07:50:38.700Z,52.50
2018-06-21T07:51:43.649Z,52.60
2018-06-21T07:52:48.572Z,52.60
2018-06-21T07:53:53.505Z,52.60
2018-06-21T07:54:58.460Z,52.60
2018-06-21T07:56:03.432Z,52.60
2018-06-21T07:57:08.377Z,52.60
2018-06-21T07:58:13.296Z,52.60
2018-06-21T07:59:18.216Z,52.60
2018-06-21T08:00:23.580Z,52.60
2018-06-21T08:01:28.884Z,52.60
2018-06-21T08:02:33.850Z,52.60
2018-06-21T08:03:38.812Z,52.50
2018-06-21T08:04:43.835Z,52.50
2018-06-21T08:05:48.905Z,52.50
2018-06-21T08:06:53.831Z,52.60
2018-06-21T08:07:58.740Z,52.50
2018-06-21T08:09:03.644Z,52.50
2018-06-21T08:10:08.448Z,52.50
2018-06-21T08:11:13.419Z,52.50
2018-06-21T08:12:18.426Z,52.50
2018-06-21T08:13:23.535Z,52.50
2018-06-21T08:14:28.513Z,52.50
2018-06-21T08:15:33.664Z,52.40
2018-06-21T08:16:38.625Z,52.30
2018-06-21T08:17:43.726Z,52.40
2018-06-21T08:18:48.915Z,52.30
2018-06-21T08:19:54.043Z,52.30
2018-06-21T08:20:59.155Z,52.30
2018-06-21T08:22:04.277Z,52.20
2018-06-21T08:23:09.432Z,52.20
2018-06-21T08:24:14.389Z,52.80
2018-06-21T08:25:19.422Z,52.20
2018-06-21T08:26:24.527Z,52.20
2018-06-21T08:27:29.471Z,52.20
2018-06-21T08:28:34.382Z,52.20
2018-06-21T08:29:39.237Z,52.10
2018-06-21T08:30:44.243Z,52.10
2018-06-21T08:31:49.294Z,52.20
2018-06-21T08:32:54.364Z,52.10
2018-06-21T08:33:59.260Z,52.10
2018-06-21T08:35:04.131Z,52.10
2018-06-21T08:36:09.027Z,52.10
2018-06-21T08:37:13.971Z,52.00
2018-06-21T08:38:18.877Z,52.00
2018-06-21T08:39:23.828Z,52.00
2018-06-21T08:40:28.838Z,52.00
2018-06-21T08:41:33.791Z,51.90
2018-06-21T08:42:39.020Z,51.90
2018-06-21T08:43:44.362Z,51.80
2018-06-21T08:44:49.550Z,51.80
2018-06-21T08:45:54.654Z,51.70
2018-06-21T08:46:59.604Z,51.70
2018-06-21T08:48:04.596Z,51.70
2018-06-21T08:49:09.588Z,51.70
2018-06-21T08:50:14.640Z,51.70
2018-06-21T08:51:19.750Z,51.70
2018-06-21T08:52:24.762Z,51.70
2018-06-21T08:53:29.788Z,51.70
2018-06-21T08:54:34.759Z,51.70
2018-06-21T08:55:39.733Z,51.70
2018-06-21T08:56:44.745Z,51.60
2018-06-21T08:57:49.795Z,51.60
2018-06-21T08:58:54.942Z,51.60
2018-06-21T09:00:00.209Z,51.60
2018-06-21T09:01:05.296Z,51.60
2018-06-21T09:02:10.472Z,51.60
2018-06-21T09:03:15.656Z,51.60
2018-06-21T09:04:20.701Z,51.50
2018-06-21T09:05:25.961Z,51.50
2018-06-21T09:06:31.219Z,51.50
2018-06-21T09:07:36.356Z,51.40
2018-06-21T09:08:41.404Z,51.40
2018-06-21T09:09:46.600Z,51.40
2018-06-21T09:10:51.658Z,51.40
2018-06-21T09:11:56.684Z,51.30
2018-06-21T09:13:01.826Z,51.30
2018-06-21T09:14:06.929Z,51.20
2018-06-21T09:15:11.908Z,51.30
2018-06-21T09:16:16.989Z,51.10
2018-06-21T09:17:22.064Z,51.10
2018-06-21T09:18:27.123Z,51.10
2018-06-21T09:19:32.109Z,51.10
2018-06-21T09:20:37.100Z,51.00
2018-06-21T09:21:42.206Z,51.00
2018-06-21T09:22:47.154Z,51.00
2018-06-21T09:23:52.086Z,51.00
2018-06-21T09:24:57.555Z,51.00
2018-06-21T09:26:02.589Z,51.00
2018-06-21T09:27:07.558Z,50.90
2018-06-21T09:28:12.452Z,50.90
2018-06-21T09:29:17.473Z,50.80
2018-06-21T09:30:22.714Z,50.70
2018-06-21T09:31:27.695Z,50.80
2018-06-21T09:32:32.682Z,50.60
2018-06-21T09:33:37.687Z,50.60
2018-06-21T09:34:42.689Z,50.60
2018-06-21T09:35:47.638Z,50.70
2018-06-21T09:36:52.516Z,50.60
2018-06-21T09:37:57.398Z,50.70
2018-06-21T09:39:02.676Z,50.50
2018-06-21T09:40:07.615Z,50.50
2018-06-21T09:41:12.450Z,50.50
2018-06-21T09:42:17.406Z,50.50
2018-06-21T09:43:22.178Z,50.30
2018-06-21T09:44:27.354Z,50.30
2018-06-21T09:45:32.492Z,50.30
2018-06-21T09:46:37.649Z,50.20
2018-06-21T09:47:42.676Z,50.30
2018-06-21T09:48:47.802Z,50.20
2018-06-21T09:49:53.302Z,50.20
2018-06-21T09:50:58.260Z,50.20
2018-06-21T09:52:03.299Z,50.20
2018-06-21T09:53:08.370Z,50.20
2018-06-21T09:54:13.466Z,50.20
2018-06-21T09:55:18.548Z,50.20
2018-06-21T09:56:25.256Z,50.20
2018-06-21T09:57:30.252Z,50.20
2018-06-21T09:58:35.292Z,50.10
2018-06-21T09:59:40.167Z,50.10
2018-06-21T10:00:45.333Z,50.20
2018-06-21T10:01:50.368Z,50.20
2018-06-21T10:02:55.312Z,50.10
2018-06-21T10:04:00.338Z,50.20
2018-06-21T10:05:05.339Z,50.20
2018-06-21T10:06:10.167Z,50.20
2018-06-21T10:07:15.142Z,50.20
2018-06-21T10:08:20.062Z,50.30
2018-06-21T10:09:24.855Z,50.20
2018-06-21T10:10:29.737Z,50.10
2018-06-21T10:11:34.785Z,50.10
2018-06-21T10:12:39.709Z,50.10
2018-06-21T10:13:44.539Z,50.10
2018-06-21T10:14:49.333Z,50.00
2018-06-21T10:15:54.122Z,50.00
2018-06-21T10:16:58.912Z,50.00
2018-06-21T10:18:03.883Z,50.00
2018-06-21T10:19:08.883Z,49.90
2018-06-21T10:20:13.840Z,49.90
2018-06-21T10:21:18.681Z,49.80
2018-06-21T10:22:23.608Z,49.80
2018-06-21T10:23:28.692Z,49.90
2018-06-21T10:24:33.866Z,49.70
2018-06-21T10:25:38.968Z,49.60
2018-06-21T10:26:43.915Z,49.40
2018-06-21T10:27:48.978Z,49.20
2018-06-21T10:28:53.966Z,49.10
2018-06-21T10:29:59.011Z,48.90
2018-06-21T10:31:04.047Z,48.90
2018-06-21T10:32:09.089Z,48.80
2018-06-21T10:33:14.085Z,48.80
2018-06-21T10:34:19.113Z,48.80
2018-06-21T10:35:24.190Z,48.80
2018-06-21T10:36:29.251Z,48.80
2018-06-21T10:37:34.219Z,48.80
2018-06-21T10:38:39.183Z,48.70
2018-06-21T10:39:44.165Z,48.70
2018-06-21T10:40:49.105Z,48.80
2018-06-21T10:41:53.993Z,48.80
2018-06-21T10:42:58.933Z,48.80
2018-06-21T10:44:03.883Z,48.80
2018-06-21T10:45:08.797Z,48.80
2018-06-21T10:46:13.677Z,48.80
2018-06-21T10:47:18.567Z,48.80
2018-06-21T10:48:23.586Z,48.80
2018-06-21T10:49:28.593Z,48.80
2018-06-21T10:50:33.399Z,48.80
2018-06-21T10:51:38.310Z,49.00
2018-06-21T10:52:43.317Z,49.00
2018-06-21T10:53:48.321Z,49.00
2018-06-21T10:54:53.288Z,49.00
2018-06-21T10:55:58.170Z,49.00
2018-06-21T10:57:03.264Z,49.00
2018-06-21T10:58:08.186Z,49.00
2018-06-21T10:59:13.112Z,49.00
2018-06-21T11:00:18.154Z,49.00
2018-06-21T11:01:23.183Z,49.00
2018-06-21T11:02:28.122Z,49.00
2018-06-21T11:03:32.972Z,48.70
2018-06-21T11:04:37.899Z,48.70
2018-06-21T11:05:42.720Z,48.70
2018-06-21T11:06:47.953Z,48.70
2018-06-21T11:07:52.849Z,48.70
2018-06-21T11:08:57.818Z,48.60
2018-06-21T11:10:02.741Z,48.70
2018-06-21T11:11:07.673Z,49.30
2018-06-21T11:12:12.616Z,48.80
2018-06-21T11:13:17.617Z,48.80
2018-06-21T11:14:22.610Z,48.80
2018-06-21T11:15:27.549Z,48.90
2018-06-21T11:16:32.398Z,48.90
2018-06-21T11:17:37.190Z,48.90
2018-06-21T11:18:42.350Z,48.90
2018-06-21T11:19:47.149Z,48.90
2018-06-21T11:20:52.001Z,48.90
2018-06-21T11:21:56.778Z,48.90
2018-06-21T11:23:01.569Z,48.90
2018-06-21T11:24:06.442Z,48.90
2018-06-21T11:25:11.313Z,48.90
2018-06-21T11:26:16.315Z,49.00
2018-06-21T11:27:21.238Z,48.90
2018-06-21T11:28:26.218Z,49.00
2018-06-21T11:29:31.272Z,49.00
2018-06-21T11:30:36.338Z,49.00
2018-06-21T11:31:41.423Z,49.00
2018-06-21T11:32:46.485Z,49.00
2018-06-21T11:33:51.536Z,49.00
2018-06-21T11:34:56.640Z,49.10
2018-06-21T11:36:01.574Z,49.00
2018-06-21T11:37:06.585Z,49.00
2018-06-21T11:38:11.506Z,49.00
2018-06-21T11:39:16.618Z,49.00
2018-06-21T11:40:21.595Z,49.00
2018-06-21T11:41:26.563Z,48.80
2018-06-21T11:42:31.461Z,48.80
2018-06-21T11:43:36.388Z,48.80
2018-06-21T11:44:41.315Z,48.80
2018-06-21T11:45:46.231Z,48.70
2018-06-21T11:46:51.384Z,48.70
2018-06-21T11:47:56.418Z,48.70
2018-06-21T11:49:01.593Z,48.60
2018-06-21T11:50:06.766Z,48.60
2018-06-21T11:51:11.851Z,48.60
2018-06-21T11:52:16.946Z,48.60
2018-06-21T11:53:23.595Z,48.50
2018-06-21T11:54:28.633Z,48.50
2018-06-21T11:55:33.756Z,48.50
2018-06-21T11:56:38.997Z,48.50
2018-06-21T11:57:44.189Z,48.50
2018-06-21T11:58:49.371Z,48.40
2018-06-21T11:59:54.462Z,47.90
2018-06-21T12:00:59.442Z,47.60
2018-06-21T12:02:04.635Z,47.50
2018-06-21T12:03:09.527Z,47.60
2018-06-21T12:04:14.778Z,47.50
2018-06-21T12:05:19.875Z,47.60
2018-06-21T12:06:25.218Z,47.60
2018-06-21T12:07:30.403Z,47.40
2018-06-21T12:08:35.616Z,47.20
2018-06-21T12:09:40.615Z,47.10
2018-06-21T12:10:46.015Z,47.20
2018-06-21T12:11:50.968Z,47.10
2018-06-21T12:12:55.977Z,46.90
2018-06-21T12:14:02.302Z,47.00
2018-06-21T12:15:07.150Z,47.60
2018-06-21T12:16:12.256Z,46.90
2018-06-21T12:17:17.409Z,47.00
2018-06-21T12:18:22.554Z,47.20
2018-06-21T12:19:27.594Z,47.30
2018-06-21T12:20:32.544Z,47.40
2018-06-21T12:21:37.550Z,47.40
2018-06-21T12:22:42.748Z,47.40
2018-06-21T12:23:48.006Z,47.30
2018-06-21T12:24:53.130Z,47.20
2018-06-21T12:25:58.309Z,47.00
2018-06-21T12:27:03.304Z,46.90
2018-06-21T12:28:08.739Z,46.60
2018-06-21T12:29:13.819Z,46.60
2018-06-21T12:30:19.295Z,46.50
2018-06-21T12:31:24.284Z,46.40
2018-06-21T12:32:29.322Z,46.40
2018-06-21T12:33:34.363Z,46.50
2018-06-21T12:34:39.243Z,46.40
2018-06-21T12:35:44.172Z,46.10
2018-06-21T12:36:49.213Z,46.00
2018-06-21T12:37:54.203Z,45.80
2018-06-21T12:38:59.494Z,45.50
2018-06-21T12:40:04.548Z,45.50
2018-06-21T12:41:09.722Z,45.40
2018-06-21T12:42:14.742Z,45.10
2018-06-21T12:43:19.684Z,44.90
2018-06-21T12:44:24.622Z,45.10
2018-06-21T12:45:29.556Z,45.20
2018-06-21T12:46:34.845Z,45.30
2018-06-21T12:47:39.832Z,45.40
2018-06-21T12:48:45.583Z,45.30
2018-06-21T12:49:50.476Z,45.40
2018-06-21T12:50:55.329Z,45.40
2018-06-21T12:52:00.234Z,45.30
2018-06-21T12:53:05.169Z,45.20
2018-06-21T12:54:10.235Z,45.30
2018-06-21T12:55:15.358Z,45.30
2018-06-21T12:56:20.404Z,45.30
2018-06-21T12:57:25.427Z,45.30
2018-06-21T12:58:30.674Z,45.30
2018-06-21T12:59:36.128Z,45.20
2018-06-21T13:00:41.086Z,45.20
2018-06-21T13:01:46.071Z,45.10
2018-06-21T13:02:51.021Z,45.00
2018-06-21T13:03:56.188Z,44.90
2018-06-21T13:05:01.284Z,45.00
2018-06-21T13:06:06.412Z,45.00
2018-06-21T13:07:11.322Z,44.90
2018-06-21T13:08:16.873Z,44.90
2018-06-21T13:09:21.976Z,44.80
2018-06-21T13:10:27.230Z,44.70
2018-06-21T13:11:32.225Z,44.60
2018-06-21T13:12:37.403Z,44.50
2018-06-21T13:13:42.533Z,44.50
2018-06-21T13:14:47.520Z,44.50
2018-06-21T13:15:52.640Z,44.40
2018-06-21T13:16:57.592Z,44.30
2018-06-21T13:18:02.717Z,44.30
2018-06-21T13:19:07.668Z,44.40
2018-06-21T13:20:12.771Z,44.40
2018-06-21T13:21:18.122Z,44.40
2018-06-21T13:22:23.074Z,44.30
2018-06-21T13:23:28.171Z,44.10
2018-06-21T13:24:33.118Z,44.10
2018-06-21T13:25:38.053Z,44.10
2018-06-21T13:26:43.240Z,44.10
2018-06-21T13:27:48.291Z,44.00
2018-06-21T13:28:53.456Z,43.90
2018-06-21T13:29:58.598Z,43.80
2018-06-21T13:31:03.559Z,44.30
2018-06-21T13:32:08.524Z,43.60
2018-06-21T13:33:13.466Z,43.50
2018-06-21T13:34:18.644Z,43.50
2018-06-21T13:35:23.596Z,43.50
2018-06-21T13:36:28.500Z,43.50
2018-06-21T13:37:33.680Z,43.50
2018-06-21T13:38:38.693Z,43.50
2018-06-21T13:39:43.975Z,43.50
2018-06-21T13:40:49.017Z,43.50
2018-06-21T13:41:53.920Z,43.40
2018-06-21T13:42:58.975Z,43.40
2018-06-21T13:44:03.865Z,43.40
2018-06-21T13:45:09.049Z,43.30
2018-06-21T13:46:13.964Z,43.30
2018-06-21T13:47:19.135Z,43.20
2018-06-21T13:48:24.166Z,43.20
2018-06-21T13:49:29.083Z,43.00
2018-06-21T13:50:34.064Z,43.00
2018-06-21T13:51:39.073Z,42.80
2018-06-21T13:52:44.184Z,42.80
2018-06-21T13:53:49.153Z,42.70
2018-06-21T13:54:54.207Z,42.70
2018-06-21T13:55:59.328Z,42.70
2018-06-21T13:57:04.306Z,42.70